sensor_id;sensor_type;location;lat;lon;timestamp;P1;durP1;ratioP1;P2;durP2;ratioP2
69381;SDS011;56560;50.692;12.844;2022-09-13T00:00:38;14.73;;;6.45;;
69381;SDS011;56560;50.692;12.844;2022-09-13T00:03:05;14.80;;;7.05;;
69381;SDS011;56560;50.692;12.844;2022-09-13T00:05:31;15.00;;;6.77;;
69381;SDS011;56560;50.692;12.844;2022-09-13T00:07:57;15.98;;;6.88;;
69381;SDS011;56560;50.692;12.844;2022-09-13T00:10:23;18.10;;;6.65;;
69381;SDS011;56560;50.692;12.844;2022-09-13T00:12:49;13.30;;;6.63;;
69381;SDS011;56560;50.692;12.844;2022-09-13T00:15:15;15.45;;;6.90;;
69381;SDS011;56560;50.692;12.844;2022-09-13T00:17:41;15.82;;;6.65;;
69381;SDS011;56560;50.692;12.844;2022-09-13T00:20:07;14.27;;;6.63;;
69381;SDS011;56560;50.692;12.844;2022-09-13T00:22:33;16.70;;;6.88;;
69381;SDS011;56560;50.692;12.844;2022-09-13T00:24:59;15.50;;;6.85;;
69381;SDS011;56560;50.692;12.844;2022-09-13T00:27:25;15.75;;;6.80;;
69381;SDS011;56560;50.692;12.844;2022-09-13T00:29:51;15.57;;;6.83;;
69381;SDS011;56560;50.692;12.844;2022-09-13T00:32:16;15.32;;;7.13;;
69381;SDS011;56560;50.692;12.844;2022-09-13T00:34:42;15.27;;;7.20;;
69381;SDS011;56560;50.692;12.844;2022-09-13T00:37:08;14.07;;;6.67;;
69381;SDS011;56560;50.692;12.844;2022-09-13T00:39:34;14.20;;;6.75;;
69381;SDS011;56560;50.692;12.844;2022-09-13T00:42:00;16.05;;;6.95;;
69381;SDS011;56560;50.692;12.844;2022-09-13T00:47:31;15.67;;;6.87;;
69381;SDS011;56560;50.692;12.844;2022-09-13T00:50:11;15.25;;;6.65;;
69381;SDS011;56560;50.692;12.844;2022-09-13T00:52:46;12.68;;;6.20;;
69381;SDS011;56560;50.692;12.844;2022-09-13T00:55:20;16.00;;;6.88;;
69381;SDS011;56560;50.692;12.844;2022-09-13T00:57:46;14.63;;;6.70;;
69381;SDS011;56560;50.692;12.844;2022-09-13T01:00:13;14.87;;;6.00;;
69381;SDS011;56560;50.692;12.844;2022-09-13T01:02:46;16.75;;;6.38;;
69381;SDS011;56560;50.692;12.844;2022-09-13T01:05:18;12.88;;;6.28;;
69381;SDS011;56560;50.692;12.844;2022-09-13T01:07:47;13.35;;;6.25;;
69381;SDS011;56560;50.692;12.844;2022-09-13T01:10:13;14.48;;;6.05;;
69381;SDS011;56560;50.692;12.844;2022-09-13T01:12:53;14.67;;;6.07;;
69381;SDS011;56560;50.692;12.844;2022-09-13T01:15:23;14.68;;;5.80;;
69381;SDS011;56560;50.692;12.844;2022-09-13T01:17:49;14.20;;;6.03;;
69381;SDS011;56560;50.692;12.844;2022-09-13T01:20:17;15.77;;;6.47;;
69381;SDS011;56560;50.692;12.844;2022-09-13T01:23:06;15.63;;;6.38;;
69381;SDS011;56560;50.692;12.844;2022-09-13T01:28:43;13.47;;;6.17;;
69381;SDS011;56560;50.692;12.844;2022-09-13T01:31:50;16.90;;;6.40;;
69381;SDS011;56560;50.692;12.844;2022-09-13T01:51:16;14.75;;;6.95;;
69381;SDS011;56560;50.692;12.844;2022-09-13T01:56:57;16.27;;;6.53;;
69381;SDS011;56560;50.692;12.844;2022-09-13T02:04:48;16.30;;;6.00;;
69381;SDS011;56560;50.692;12.844;2022-09-13T02:07:20;14.82;;;7.03;;
69381;SDS011;56560;50.692;12.844;2022-09-13T02:09:51;16.23;;;6.73;;
69381;SDS011;56560;50.692;12.844;2022-09-13T02:12:22;17.15;;;7.47;;
69381;SDS011;56560;50.692;12.844;2022-09-13T02:15:06;13.68;;;6.60;;
69381;SDS011;56560;50.692;12.844;2022-09-13T02:17:37;16.40;;;6.82;;
69381;SDS011;56560;50.692;12.844;2022-09-13T02:20:07;14.75;;;6.93;;
69381;SDS011;56560;50.692;12.844;2022-09-13T02:22:44;14.47;;;6.23;;
69381;SDS011;56560;50.692;12.844;2022-09-13T02:25:15;15.85;;;6.30;;
69381;SDS011;56560;50.692;12.844;2022-09-13T02:27:45;14.35;;;6.50;;
69381;SDS011;56560;50.692;12.844;2022-09-13T02:30:13;15.23;;;6.55;;
69381;SDS011;56560;50.692;12.844;2022-09-13T02:32:44;14.95;;;7.20;;
69381;SDS011;56560;50.692;12.844;2022-09-13T02:35:24;15.43;;;6.30;;
69381;SDS011;56560;50.692;12.844;2022-09-13T02:38:06;15.75;;;6.65;;
69381;SDS011;56560;50.692;12.844;2022-09-13T02:40:41;13.50;;;6.05;;
69381;SDS011;56560;50.692;12.844;2022-09-13T02:43:11;13.90;;;6.80;;
69381;SDS011;56560;50.692;12.844;2022-09-13T02:46:26;14.15;;;6.78;;
69381;SDS011;56560;50.692;12.844;2022-09-13T02:51:32;15.95;;;6.18;;
69381;SDS011;56560;50.692;12.844;2022-09-13T02:56:43;14.80;;;7.30;;
69381;SDS011;56560;50.692;12.844;2022-09-13T02:59:16;15.00;;;6.78;;
69381;SDS011;56560;50.692;12.844;2022-09-13T03:01:47;14.10;;;6.77;;
69381;SDS011;56560;50.692;12.844;2022-09-13T03:04:21;14.00;;;6.43;;
69381;SDS011;56560;50.692;12.844;2022-09-13T03:06:47;14.20;;;7.30;;
69381;SDS011;56560;50.692;12.844;2022-09-13T03:09:13;14.37;;;6.90;;
69381;SDS011;56560;50.692;12.844;2022-09-13T03:11:49;16.48;;;6.95;;
69381;SDS011;56560;50.692;12.844;2022-09-13T03:25:38;13.30;;;6.43;;
69381;SDS011;56560;50.692;12.844;2022-09-13T03:28:22;15.73;;;7.25;;
69381;SDS011;56560;50.692;12.844;2022-09-13T03:31:03;17.23;;;6.70;;
69381;SDS011;56560;50.692;12.844;2022-09-13T03:33:58;16.73;;;7.38;;
69381;SDS011;56560;50.692;12.844;2022-09-13T03:36:34;14.30;;;6.30;;
69381;SDS011;56560;50.692;12.844;2022-09-13T03:41:43;17.33;;;7.75;;
69381;SDS011;56560;50.692;12.844;2022-09-13T03:44:15;14.75;;;7.07;;
69381;SDS011;56560;50.692;12.844;2022-09-13T03:46:46;17.58;;;6.10;;
69381;SDS011;56560;50.692;12.844;2022-09-13T03:49:16;13.73;;;6.40;;
69381;SDS011;56560;50.692;12.844;2022-09-13T03:51:44;15.00;;;7.28;;
69381;SDS011;56560;50.692;12.844;2022-09-13T03:54:18;20.17;;;7.88;;
69381;SDS011;56560;50.692;12.844;2022-09-13T03:59:35;15.30;;;6.78;;
69381;SDS011;56560;50.692;12.844;2022-09-13T04:02:03;15.13;;;6.23;;
69381;SDS011;56560;50.692;12.844;2022-09-13T04:04:30;15.00;;;7.25;;
69381;SDS011;56560;50.692;12.844;2022-09-13T04:06:57;15.63;;;6.82;;
69381;SDS011;56560;50.692;12.844;2022-09-13T04:09:27;15.68;;;6.78;;
69381;SDS011;56560;50.692;12.844;2022-09-13T04:11:53;17.30;;;9.20;;
69381;SDS011;56560;50.692;12.844;2022-09-13T04:14:19;16.60;;;7.07;;
69381;SDS011;56560;50.692;12.844;2022-09-13T04:16:44;15.63;;;7.00;;
69381;SDS011;56560;50.692;12.844;2022-09-13T04:19:10;15.93;;;7.38;;
69381;SDS011;56560;50.692;12.844;2022-09-13T04:21:35;21.33;;;9.77;;
69381;SDS011;56560;50.692;12.844;2022-09-13T04:24:02;15.75;;;7.50;;
69381;SDS011;56560;50.692;12.844;2022-09-13T04:26:27;18.33;;;8.68;;
69381;SDS011;56560;50.692;12.844;2022-09-13T04:28:53;15.70;;;7.03;;
69381;SDS011;56560;50.692;12.844;2022-09-13T04:31:19;19.87;;;8.37;;
69381;SDS011;56560;50.692;12.844;2022-09-13T04:33:44;17.73;;;7.70;;
69381;SDS011;56560;50.692;12.844;2022-09-13T04:36:10;14.67;;;7.20;;
69381;SDS011;56560;50.692;12.844;2022-09-13T04:38:36;16.02;;;7.20;;
69381;SDS011;56560;50.692;12.844;2022-09-13T04:41:01;13.83;;;6.50;;
69381;SDS011;56560;50.692;12.844;2022-09-13T04:43:28;16.90;;;7.32;;
69381;SDS011;56560;50.692;12.844;2022-09-13T04:45:58;15.70;;;7.07;;
69381;SDS011;56560;50.692;12.844;2022-09-13T04:48:25;20.95;;;8.48;;
69381;SDS011;56560;50.692;12.844;2022-09-13T04:50:50;18.17;;;8.27;;
69381;SDS011;56560;50.692;12.844;2022-09-13T04:53:26;16.60;;;7.45;;
69381;SDS011;56560;50.692;12.844;2022-09-13T04:55:52;16.90;;;7.63;;
69381;SDS011;56560;50.692;12.844;2022-09-13T04:58:23;23.40;;;9.02;;
69381;SDS011;56560;50.692;12.844;2022-09-13T05:00:49;18.67;;;8.10;;
69381;SDS011;56560;50.692;12.844;2022-09-13T05:03:20;18.63;;;8.95;;
69381;SDS011;56560;50.692;12.844;2022-09-13T05:05:48;16.58;;;7.68;;
69381;SDS011;56560;50.692;12.844;2022-09-13T05:08:14;20.33;;;8.43;;
69381;SDS011;56560;50.692;12.844;2022-09-13T05:10:40;17.50;;;8.57;;
69381;SDS011;56560;50.692;12.844;2022-09-13T05:13:05;16.42;;;8.02;;
69381;SDS011;56560;50.692;12.844;2022-09-13T05:15:31;15.97;;;7.97;;
69381;SDS011;56560;50.692;12.844;2022-09-13T05:17:56;17.73;;;7.28;;
69381;SDS011;56560;50.692;12.844;2022-09-13T05:20:22;15.83;;;7.20;;
69381;SDS011;56560;50.692;12.844;2022-09-13T05:22:48;17.70;;;8.80;;
69381;SDS011;56560;50.692;12.844;2022-09-13T05:25:13;17.05;;;9.10;;
69381;SDS011;56560;50.692;12.844;2022-09-13T05:27:39;15.53;;;8.30;;
69381;SDS011;56560;50.692;12.844;2022-09-13T05:30:05;17.10;;;7.90;;
69381;SDS011;56560;50.692;12.844;2022-09-13T05:32:31;15.93;;;8.18;;
69381;SDS011;56560;50.692;12.844;2022-09-13T05:34:57;15.43;;;7.83;;
69381;SDS011;56560;50.692;12.844;2022-09-13T05:37:22;18.50;;;9.67;;
69381;SDS011;56560;50.692;12.844;2022-09-13T05:39:48;16.70;;;7.97;;
69381;SDS011;56560;50.692;12.844;2022-09-13T05:42:13;18.43;;;7.40;;
69381;SDS011;56560;50.692;12.844;2022-09-13T05:44:39;15.68;;;7.35;;
69381;SDS011;56560;50.692;12.844;2022-09-13T05:47:05;14.27;;;7.40;;
69381;SDS011;56560;50.692;12.844;2022-09-13T05:49:30;14.77;;;6.80;;
69381;SDS011;56560;50.692;12.844;2022-09-13T05:51:56;15.57;;;7.20;;
69381;SDS011;56560;50.692;12.844;2022-09-13T05:54:21;15.23;;;7.63;;
69381;SDS011;56560;50.692;12.844;2022-09-13T05:56:47;16.70;;;6.70;;
69381;SDS011;56560;50.692;12.844;2022-09-13T05:59:13;13.83;;;5.90;;
69381;SDS011;56560;50.692;12.844;2022-09-13T06:01:38;14.45;;;6.60;;
69381;SDS011;56560;50.692;12.844;2022-09-13T06:04:04;15.03;;;6.77;;
69381;SDS011;56560;50.692;12.844;2022-09-13T06:06:30;14.10;;;7.07;;
69381;SDS011;56560;50.692;12.844;2022-09-13T06:08:56;14.73;;;7.23;;
69381;SDS011;56560;50.692;12.844;2022-09-13T06:11:22;18.65;;;7.78;;
69381;SDS011;56560;50.692;12.844;2022-09-13T06:13:50;14.00;;;6.97;;
69381;SDS011;56560;50.692;12.844;2022-09-13T06:16:16;13.67;;;6.57;;
69381;SDS011;56560;50.692;12.844;2022-09-13T06:18:44;12.98;;;6.47;;
69381;SDS011;56560;50.692;12.844;2022-09-13T06:21:15;14.52;;;6.30;;
69381;SDS011;56560;50.692;12.844;2022-09-13T06:23:45;13.43;;;6.70;;
69381;SDS011;56560;50.692;12.844;2022-09-13T06:26:13;12.90;;;6.30;;
69381;SDS011;56560;50.692;12.844;2022-09-13T06:28:40;12.23;;;5.97;;
69381;SDS011;56560;50.692;12.844;2022-09-13T06:31:07;13.88;;;6.15;;
69381;SDS011;56560;50.692;12.844;2022-09-13T06:33:36;13.27;;;6.30;;
69381;SDS011;56560;50.692;12.844;2022-09-13T06:36:03;13.03;;;6.00;;
69381;SDS011;56560;50.692;12.844;2022-09-13T06:38:31;12.75;;;5.90;;
69381;SDS011;56560;50.692;12.844;2022-09-13T06:41:00;13.35;;;5.95;;
69381;SDS011;56560;50.692;12.844;2022-09-13T06:43:33;12.25;;;6.00;;
69381;SDS011;56560;50.692;12.844;2022-09-13T06:46:03;12.88;;;5.80;;
69381;SDS011;56560;50.692;12.844;2022-09-13T06:48:31;10.77;;;5.30;;
69381;SDS011;56560;50.692;12.844;2022-09-13T06:50:58;11.07;;;5.22;;
69381;SDS011;56560;50.692;12.844;2022-09-13T06:53:25;10.82;;;5.15;;
69381;SDS011;56560;50.692;12.844;2022-09-13T06:55:59;10.75;;;5.13;;
69381;SDS011;56560;50.692;12.844;2022-09-13T06:58:27;12.00;;;5.03;;
69381;SDS011;56560;50.692;12.844;2022-09-13T07:01:04;11.63;;;5.72;;
69381;SDS011;56560;50.692;12.844;2022-09-13T07:03:35;10.73;;;5.15;;
69381;SDS011;56560;50.692;12.844;2022-09-13T07:06:11;11.63;;;4.82;;
69381;SDS011;56560;50.692;12.844;2022-09-13T07:08:47;11.45;;;4.70;;
69381;SDS011;56560;50.692;12.844;2022-09-13T07:11:15;10.13;;;4.40;;
69381;SDS011;56560;50.692;12.844;2022-09-13T07:13:46;11.02;;;5.30;;
69381;SDS011;56560;50.692;12.844;2022-09-13T07:16:19;8.90;;;4.28;;
69381;SDS011;56560;50.692;12.844;2022-09-13T07:18:50;9.88;;;4.45;;
69381;SDS011;56560;50.692;12.844;2022-09-13T07:21:24;9.50;;;4.38;;
69381;SDS011;56560;50.692;12.844;2022-09-13T07:23:51;10.63;;;4.80;;
69381;SDS011;56560;50.692;12.844;2022-09-13T07:26:18;9.70;;;4.85;;
69381;SDS011;56560;50.692;12.844;2022-09-13T07:28:44;10.30;;;4.80;;
69381;SDS011;56560;50.692;12.844;2022-09-13T07:31:15;11.52;;;4.50;;
69381;SDS011;56560;50.692;12.844;2022-09-13T07:33:45;10.70;;;4.72;;
69381;SDS011;56560;50.692;12.844;2022-09-13T07:38:43;10.90;;;4.43;;
69381;SDS011;56560;50.692;12.844;2022-09-13T07:41:16;10.23;;;4.53;;
69381;SDS011;56560;50.692;12.844;2022-09-13T07:43:43;9.38;;;4.18;;
69381;SDS011;56560;50.692;12.844;2022-09-13T07:46:09;10.88;;;4.40;;
69381;SDS011;56560;50.692;12.844;2022-09-13T07:48:40;10.20;;;3.70;;
69381;SDS011;56560;50.692;12.844;2022-09-13T07:53:34;8.18;;;3.72;;
69381;SDS011;56560;50.692;12.844;2022-09-13T07:56:02;9.30;;;4.10;;
69381;SDS011;56560;50.692;12.844;2022-09-13T07:58:30;9.83;;;3.90;;
69381;SDS011;56560;50.692;12.844;2022-09-13T08:00:59;8.75;;;3.85;;
69381;SDS011;56560;50.692;12.844;2022-09-13T08:03:34;9.32;;;4.28;;
69381;SDS011;56560;50.692;12.844;2022-09-13T08:06:02;8.65;;;4.10;;
69381;SDS011;56560;50.692;12.844;2022-09-13T08:08:30;9.15;;;3.95;;
69381;SDS011;56560;50.692;12.844;2022-09-13T08:10:58;10.50;;;4.57;;
69381;SDS011;56560;50.692;12.844;2022-09-13T08:13:25;9.85;;;4.60;;
69381;SDS011;56560;50.692;12.844;2022-09-13T08:15:53;8.60;;;4.07;;
69381;SDS011;56560;50.692;12.844;2022-09-13T08:18:21;9.32;;;4.18;;
69381;SDS011;56560;50.692;12.844;2022-09-13T08:20:46;9.15;;;4.30;;
69381;SDS011;56560;50.692;12.844;2022-09-13T08:23:12;8.70;;;4.07;;
69381;SDS011;56560;50.692;12.844;2022-09-13T08:25:38;9.70;;;4.55;;
69381;SDS011;56560;50.692;12.844;2022-09-13T08:28:05;10.40;;;4.80;;
69381;SDS011;56560;50.692;12.844;2022-09-13T08:30:35;10.13;;;4.40;;
69381;SDS011;56560;50.692;12.844;2022-09-13T08:33:02;9.93;;;4.65;;
69381;SDS011;56560;50.692;12.844;2022-09-13T08:35:28;9.85;;;4.70;;
69381;SDS011;56560;50.692;12.844;2022-09-13T08:37:55;9.95;;;4.55;;
69381;SDS011;56560;50.692;12.844;2022-09-13T08:40:21;10.23;;;4.50;;
69381;SDS011;56560;50.692;12.844;2022-09-13T08:45:20;9.38;;;4.47;;
69381;SDS011;56560;50.692;12.844;2022-09-13T08:47:55;10.90;;;4.63;;
69381;SDS011;56560;50.692;12.844;2022-09-13T08:50:42;10.55;;;5.47;;
69381;SDS011;56560;50.692;12.844;2022-09-13T08:53:23;11.52;;;5.85;;
69381;SDS011;56560;50.692;12.844;2022-09-13T08:56:04;11.05;;;4.75;;
69381;SDS011;56560;50.692;12.844;2022-09-13T09:04:37;9.65;;;4.72;;
69381;SDS011;56560;50.692;12.844;2022-09-13T09:07:18;11.60;;;5.70;;
69381;SDS011;56560;50.692;12.844;2022-09-13T09:09:52;13.02;;;5.35;;
69381;SDS011;56560;50.692;12.844;2022-09-13T09:17:57;10.18;;;4.72;;
69381;SDS011;56560;50.692;12.844;2022-09-13T09:20:43;10.93;;;4.97;;
69381;SDS011;56560;50.692;12.844;2022-09-13T09:25:54;9.75;;;4.90;;
69381;SDS011;56560;50.692;12.844;2022-09-13T09:28:23;10.18;;;4.80;;
69381;SDS011;56560;50.692;12.844;2022-09-13T09:36:22;10.13;;;4.38;;
69381;SDS011;56560;50.692;12.844;2022-09-13T09:39:11;9.68;;;4.57;;
69381;SDS011;56560;50.692;12.844;2022-09-13T09:41:40;11.52;;;4.82;;
69381;SDS011;56560;50.692;12.844;2022-09-13T09:46:37;8.87;;;4.07;;
69381;SDS011;56560;50.692;12.844;2022-09-13T09:49:16;11.52;;;4.97;;
69381;SDS011;56560;50.692;12.844;2022-09-13T09:52:09;8.80;;;4.15;;
69381;SDS011;56560;50.692;12.844;2022-09-13T09:54:38;9.40;;;3.92;;
69381;SDS011;56560;50.692;12.844;2022-09-13T09:57:05;7.95;;;3.83;;
69381;SDS011;56560;50.692;12.844;2022-09-13T09:59:32;11.43;;;4.17;;
69381;SDS011;56560;50.692;12.844;2022-09-13T10:01:59;11.10;;;4.07;;
69381;SDS011;56560;50.692;12.844;2022-09-13T10:04:28;7.80;;;3.65;;
69381;SDS011;56560;50.692;12.844;2022-09-13T10:07:19;13.88;;;4.25;;
69381;SDS011;56560;50.692;12.844;2022-09-13T10:09:57;9.38;;;3.70;;
69381;SDS011;56560;50.692;12.844;2022-09-13T10:12:31;8.53;;;3.70;;
69381;SDS011;56560;50.692;12.844;2022-09-13T10:15:03;8.18;;;3.80;;
69381;SDS011;56560;50.692;12.844;2022-09-13T10:18:09;8.20;;;3.78;;
69381;SDS011;56560;50.692;12.844;2022-09-13T10:20:41;8.48;;;3.85;;
69381;SDS011;56560;50.692;12.844;2022-09-13T10:23:23;8.10;;;3.97;;
69381;SDS011;56560;50.692;12.844;2022-09-13T10:25:59;7.83;;;3.63;;
69381;SDS011;56560;50.692;12.844;2022-09-13T10:28:58;9.15;;;4.20;;
69381;SDS011;56560;50.692;12.844;2022-09-13T10:31:32;7.75;;;3.80;;
69381;SDS011;56560;50.692;12.844;2022-09-13T10:34:02;8.60;;;3.53;;
69381;SDS011;56560;50.692;12.844;2022-09-13T10:36:29;9.55;;;3.83;;
69381;SDS011;56560;50.692;12.844;2022-09-13T10:38:59;7.95;;;3.95;;
69381;SDS011;56560;50.692;12.844;2022-09-13T10:41:30;8.65;;;4.18;;
69381;SDS011;56560;50.692;12.844;2022-09-13T10:43:59;7.35;;;3.35;;
69381;SDS011;56560;50.692;12.844;2022-09-13T10:46:28;7.43;;;3.63;;
69381;SDS011;56560;50.692;12.844;2022-09-13T10:49:00;8.38;;;3.90;;
69381;SDS011;56560;50.692;12.844;2022-09-13T10:56:41;7.25;;;3.70;;
69381;SDS011;56560;50.692;12.844;2022-09-13T10:59:15;7.32;;;3.30;;
69381;SDS011;56560;50.692;12.844;2022-09-13T11:04:53;8.07;;;3.20;;
69381;SDS011;56560;50.692;12.844;2022-09-13T11:13:39;7.88;;;3.20;;
69381;SDS011;56560;50.692;12.844;2022-09-13T11:16:33;7.17;;;3.10;;
69381;SDS011;56560;50.692;12.844;2022-09-13T11:22:15;6.13;;;2.67;;
69381;SDS011;56560;50.692;12.844;2022-09-13T11:30:02;6.80;;;3.10;;
69381;SDS011;56560;50.692;12.844;2022-09-13T11:55:39;4.25;;;2.08;;
69381;SDS011;56560;50.692;12.844;2022-09-13T11:58:22;6.97;;;2.30;;
69381;SDS011;56560;50.692;12.844;2022-09-13T12:00:59;4.90;;;2.30;;
69381;SDS011;56560;50.692;12.844;2022-09-13T12:06:30;5.03;;;2.38;;
69381;SDS011;56560;50.692;12.844;2022-09-13T12:11:35;5.15;;;2.60;;
69381;SDS011;56560;50.692;12.844;2022-09-13T12:14:12;6.70;;;2.50;;
69381;SDS011;56560;50.692;12.844;2022-09-13T12:16:42;5.78;;;2.40;;
69381;SDS011;56560;50.692;12.844;2022-09-13T12:21:41;5.00;;;2.30;;
69381;SDS011;56560;50.692;12.844;2022-09-13T12:24:18;4.68;;;2.20;;
69381;SDS011;56560;50.692;12.844;2022-09-13T12:27:05;5.40;;;2.50;;
69381;SDS011;56560;50.692;12.844;2022-09-13T12:32:14;4.43;;;2.22;;
69381;SDS011;56560;50.692;12.844;2022-09-13T12:45:54;6.35;;;2.80;;
69381;SDS011;56560;50.692;12.844;2022-09-13T12:54:28;8.33;;;2.70;;
69381;SDS011;56560;50.692;12.844;2022-09-13T12:57:28;6.03;;;2.38;;
69381;SDS011;56560;50.692;12.844;2022-09-13T13:02:57;5.43;;;2.80;;
69381;SDS011;56560;50.692;12.844;2022-09-13T13:05:38;5.80;;;2.90;;
69381;SDS011;56560;50.692;12.844;2022-09-13T13:08:26;6.77;;;2.67;;
69381;SDS011;56560;50.692;12.844;2022-09-13T13:11:07;6.72;;;2.80;;
69381;SDS011;56560;50.692;12.844;2022-09-13T13:13:41;5.82;;;2.70;;
69381;SDS011;56560;50.692;12.844;2022-09-13T13:19:25;6.68;;;2.88;;
69381;SDS011;56560;50.692;12.844;2022-09-13T13:22:46;6.20;;;2.70;;
69381;SDS011;56560;50.692;12.844;2022-09-13T13:39:07;6.03;;;2.83;;
69381;SDS011;56560;50.692;12.844;2022-09-13T13:41:53;4.85;;;2.60;;
69381;SDS011;56560;50.692;12.844;2022-09-13T13:49:39;6.00;;;2.95;;
69381;SDS011;56560;50.692;12.844;2022-09-13T13:57:34;7.28;;;3.22;;
69381;SDS011;56560;50.692;12.844;2022-09-13T14:00:20;7.13;;;3.30;;
69381;SDS011;56560;50.692;12.844;2022-09-13T14:19:37;8.02;;;3.70;;
69381;SDS011;56560;50.692;12.844;2022-09-13T14:24:49;8.75;;;4.50;;
69381;SDS011;56560;50.692;12.844;2022-09-13T14:27:18;6.78;;;3.58;;
69381;SDS011;56560;50.692;12.844;2022-09-13T14:29:56;12.07;;;5.50;;
69381;SDS011;56560;50.692;12.844;2022-09-13T14:32:27;8.63;;;4.18;;
69381;SDS011;56560;50.692;12.844;2022-09-13T14:34:58;8.45;;;4.15;;
69381;SDS011;56560;50.692;12.844;2022-09-13T14:37:30;9.70;;;3.90;;
69381;SDS011;56560;50.692;12.844;2022-09-13T14:42:39;8.97;;;3.83;;
69381;SDS011;56560;50.692;12.844;2022-09-13T14:45:52;7.90;;;3.63;;
69381;SDS011;56560;50.692;12.844;2022-09-13T14:50:30;7.65;;;3.38;;
69381;SDS011;56560;50.692;12.844;2022-09-13T14:55:30;7.00;;;3.40;;
69381;SDS011;56560;50.692;12.844;2022-09-13T14:58:00;7.40;;;3.60;;
69381;SDS011;56560;50.692;12.844;2022-09-13T15:00:29;7.72;;;3.70;;
69381;SDS011;56560;50.692;12.844;2022-09-13T15:02:58;7.40;;;3.50;;
69381;SDS011;56560;50.692;12.844;2022-09-13T15:05:34;5.93;;;3.30;;
69381;SDS011;56560;50.692;12.844;2022-09-13T15:08:21;6.83;;;3.20;;
69381;SDS011;56560;50.692;12.844;2022-09-13T15:10:50;6.13;;;3.05;;
69381;SDS011;56560;50.692;12.844;2022-09-13T15:13:16;5.57;;;3.00;;
69381;SDS011;56560;50.692;12.844;2022-09-13T15:15:44;9.90;;;3.13;;
69381;SDS011;56560;50.692;12.844;2022-09-13T15:28:35;6.60;;;2.80;;
69381;SDS011;56560;50.692;12.844;2022-09-13T15:31:27;7.95;;;3.10;;
69381;SDS011;56560;50.692;12.844;2022-09-13T15:36:45;8.20;;;3.20;;
69381;SDS011;56560;50.692;12.844;2022-09-13T15:39:14;6.40;;;3.00;;
69381;SDS011;56560;50.692;12.844;2022-09-13T15:41:57;9.05;;;5.25;;
69381;SDS011;56560;50.692;12.844;2022-09-13T15:44:24;6.97;;;3.15;;
69381;SDS011;56560;50.692;12.844;2022-09-13T15:46:52;6.40;;;3.00;;
69381;SDS011;56560;50.692;12.844;2022-09-13T15:49:20;5.47;;;2.80;;
69381;SDS011;56560;50.692;12.844;2022-09-13T15:51:51;8.35;;;2.92;;
69381;SDS011;56560;50.692;12.844;2022-09-13T15:54:18;8.43;;;3.10;;
69381;SDS011;56560;50.692;12.844;2022-09-13T15:56:47;6.32;;;3.10;;
69381;SDS011;56560;50.692;12.844;2022-09-13T15:59:16;6.20;;;3.10;;
69381;SDS011;56560;50.692;12.844;2022-09-13T16:01:44;6.57;;;2.83;;
69381;SDS011;56560;50.692;12.844;2022-09-13T16:04:12;6.60;;;2.90;;
69381;SDS011;56560;50.692;12.844;2022-09-13T16:06:37;5.60;;;2.80;;
69381;SDS011;56560;50.692;12.844;2022-09-13T16:09:37;6.40;;;2.70;;
69381;SDS011;56560;50.692;12.844;2022-09-13T16:11:55;6.15;;;2.67;;
69381;SDS011;56560;50.692;12.844;2022-09-13T16:14:21;7.05;;;3.20;;
69381;SDS011;56560;50.692;12.844;2022-09-13T16:16:47;8.00;;;3.13;;
69381;SDS011;56560;50.692;12.844;2022-09-13T16:19:20;8.77;;;3.47;;
69381;SDS011;56560;50.692;12.844;2022-09-13T16:21:47;7.63;;;3.47;;
69381;SDS011;56560;50.692;12.844;2022-09-13T16:24:13;6.20;;;2.80;;
69381;SDS011;56560;50.692;12.844;2022-09-13T16:26:40;7.50;;;3.38;;
69381;SDS011;56560;50.692;12.844;2022-09-13T16:29:07;7.80;;;3.30;;
69381;SDS011;56560;50.692;12.844;2022-09-13T16:31:34;9.57;;;3.20;;
69381;SDS011;56560;50.692;12.844;2022-09-13T16:34:00;7.03;;;3.10;;
69381;SDS011;56560;50.692;12.844;2022-09-13T16:36:26;7.22;;;3.05;;
69381;SDS011;56560;50.692;12.844;2022-09-13T16:38:53;7.93;;;3.30;;
69381;SDS011;56560;50.692;12.844;2022-09-13T16:41:22;7.70;;;3.57;;
69381;SDS011;56560;50.692;12.844;2022-09-13T16:43:47;10.20;;;3.83;;
69381;SDS011;56560;50.692;12.844;2022-09-13T16:46:13;9.27;;;3.70;;
69381;SDS011;56560;50.692;12.844;2022-09-13T16:48:39;8.60;;;3.42;;
69381;SDS011;56560;50.692;12.844;2022-09-13T16:51:06;9.32;;;3.53;;
69381;SDS011;56560;50.692;12.844;2022-09-13T16:53:34;7.88;;;3.45;;
69381;SDS011;56560;50.692;12.844;2022-09-13T16:56:09;8.93;;;4.00;;
69381;SDS011;56560;50.692;12.844;2022-09-13T16:58:40;11.93;;;4.30;;
69381;SDS011;56560;50.692;12.844;2022-09-13T17:01:08;9.18;;;3.67;;
69381;SDS011;56560;50.692;12.844;2022-09-13T17:03:35;8.88;;;4.18;;
69381;SDS011;56560;50.692;12.844;2022-09-13T17:06:04;9.25;;;4.03;;
69381;SDS011;56560;50.692;12.844;2022-09-13T17:08:32;9.63;;;4.30;;
69381;SDS011;56560;50.692;12.844;2022-09-13T17:10:59;11.00;;;4.83;;
69381;SDS011;56560;50.692;12.844;2022-09-13T17:13:25;10.43;;;4.75;;
69381;SDS011;56560;50.692;12.844;2022-09-13T17:15:50;11.10;;;4.40;;
69381;SDS011;56560;50.692;12.844;2022-09-13T17:18:16;10.47;;;5.10;;
69381;SDS011;56560;50.692;12.844;2022-09-13T17:20:46;11.02;;;4.78;;
69381;SDS011;56560;50.692;12.844;2022-09-13T17:23:13;9.27;;;4.53;;
69381;SDS011;56560;50.692;12.844;2022-09-13T17:25:41;9.38;;;4.35;;
69381;SDS011;56560;50.692;12.844;2022-09-13T17:28:10;10.73;;;4.80;;
69381;SDS011;56560;50.692;12.844;2022-09-13T17:30:37;13.15;;;6.40;;
69381;SDS011;56560;50.692;12.844;2022-09-13T17:33:03;13.02;;;6.18;;
69381;SDS011;56560;50.692;12.844;2022-09-13T17:35:30;17.73;;;8.90;;
69381;SDS011;56560;50.692;12.844;2022-09-13T17:37:56;24.47;;;11.67;;
69381;SDS011;56560;50.692;12.844;2022-09-13T17:40:23;27.35;;;9.60;;
69381;SDS011;56560;50.692;12.844;2022-09-13T17:42:49;22.30;;;10.50;;
69381;SDS011;56560;50.692;12.844;2022-09-13T17:45:15;17.02;;;7.70;;
69381;SDS011;56560;50.692;12.844;2022-09-13T17:47:40;19.52;;;10.02;;
69381;SDS011;56560;50.692;12.844;2022-09-13T17:50:06;19.77;;;10.83;;
69381;SDS011;56560;50.692;12.844;2022-09-13T17:52:32;15.80;;;7.95;;
69381;SDS011;56560;50.692;12.844;2022-09-13T17:54:58;20.60;;;9.43;;
69381;SDS011;56560;50.692;12.844;2022-09-13T17:57:23;17.03;;;7.17;;
69381;SDS011;56560;50.692;12.844;2022-09-13T17:59:49;13.18;;;6.70;;
69381;SDS011;56560;50.692;12.844;2022-09-13T18:02:16;16.30;;;6.30;;
69381;SDS011;56560;50.692;12.844;2022-09-13T18:04:41;13.60;;;6.50;;
69381;SDS011;56560;50.692;12.844;2022-09-13T18:07:07;19.25;;;7.38;;
69381;SDS011;56560;50.692;12.844;2022-09-13T18:09:33;18.80;;;9.23;;
69381;SDS011;56560;50.692;12.844;2022-09-13T18:11:58;19.98;;;8.90;;
69381;SDS011;56560;50.692;12.844;2022-09-13T18:14:24;23.42;;;10.02;;
69381;SDS011;56560;50.692;12.844;2022-09-13T18:16:51;19.75;;;9.60;;
69381;SDS011;56560;50.692;12.844;2022-09-13T18:19:20;15.38;;;7.68;;
69381;SDS011;56560;50.692;12.844;2022-09-13T18:21:47;18.90;;;9.07;;
69381;SDS011;56560;50.692;12.844;2022-09-13T18:24:12;17.27;;;6.82;;
69381;SDS011;56560;50.692;12.844;2022-09-13T18:26:38;22.43;;;9.20;;
69381;SDS011;56560;50.692;12.844;2022-09-13T18:29:04;19.02;;;9.60;;
69381;SDS011;56560;50.692;12.844;2022-09-13T18:31:33;14.93;;;7.43;;
69381;SDS011;56560;50.692;12.844;2022-09-13T18:34:01;19.48;;;10.20;;